sensor_id;sensor_type;location;lat;lon;timestamp;P1;durP1;ratioP1;P2;durP2;ratioP2
26080;SDS011;13991;51.174;4.438;2024-03-25T00:01:23;31.80;;;5.90;;
26080;SDS011;13991;51.174;4.438;2024-03-25T00:03:49;31.67;;;5.50;;
26080;SDS011;13991;51.174;4.438;2024-03-25T00:06:15;19.70;;;5.37;;
26080;SDS011;13991;51.174;4.438;2024-03-25T00:08:41;29.07;;;5.37;;
26080;SDS011;13991;51.174;4.438;2024-03-25T00:11:07;20.27;;;4.90;;
26080;SDS011;13991;51.174;4.438;2024-03-25T00:13:33;27.03;;;5.30;;
26080;SDS011;13991;51.174;4.438;2024-03-25T00:15:58;22.67;;;6.23;;
26080;SDS011;13991;51.174;4.438;2024-03-25T00:18:24;22.13;;;5.83;;
26080;SDS011;13991;51.174;4.438;2024-03-25T00:20:50;22.03;;;5.83;;
26080;SDS011;13991;51.174;4.438;2024-03-25T00:23:16;22.00;;;5.97;;
26080;SDS011;13991;51.174;4.438;2024-03-25T00:25:42;20.47;;;6.17;;
26080;SDS011;13991;51.174;4.438;2024-03-25T00:28:08;17.73;;;5.13;;
26080;SDS011;13991;51.174;4.438;2024-03-25T00:30:33;21.53;;;5.70;;
26080;SDS011;13991;51.174;4.438;2024-03-25T00:32:59;21.20;;;7.03;;
26080;SDS011;13991;51.174;4.438;2024-03-25T00:35:25;17.07;;;6.47;;
26080;SDS011;13991;51.174;4.438;2024-03-25T00:37:51;19.30;;;5.87;;
26080;SDS011;13991;51.174;4.438;2024-03-25T00:40:16;17.60;;;6.43;;
26080;SDS011;13991;51.174;4.438;2024-03-25T00:42:42;14.40;;;6.07;;
26080;SDS011;13991;51.174;4.438;2024-03-25T00:45:08;19.60;;;6.10;;
26080;SDS011;13991;51.174;4.438;2024-03-25T00:47:34;17.47;;;6.33;;
26080;SDS011;13991;51.174;4.438;2024-03-25T00:50:00;20.27;;;5.73;;
26080;SDS011;13991;51.174;4.438;2024-03-25T00:52:26;16.97;;;7.07;;
26080;SDS011;13991;51.174;4.438;2024-03-25T00:54:52;18.27;;;6.10;;
26080;SDS011;13991;51.174;4.438;2024-03-25T00:57:17;23.77;;;6.40;;
26080;SDS011;13991;51.174;4.438;2024-03-25T00:59:43;18.03;;;5.67;;
26080;SDS011;13991;51.174;4.438;2024-03-25T01:02:09;20.47;;;6.77;;
26080;SDS011;13991;51.174;4.438;2024-03-25T01:04:35;17.73;;;6.27;;
26080;SDS011;13991;51.174;4.438;2024-03-25T01:07:01;18.23;;;7.50;;
26080;SDS011;13991;51.174;4.438;2024-03-25T01:09:27;21.33;;;6.90;;
26080;SDS011;13991;51.174;4.438;2024-03-25T01:11:52;19.00;;;6.30;;
26080;SDS011;13991;51.174;4.438;2024-03-25T01:14:18;20.33;;;5.83;;
26080;SDS011;13991;51.174;4.438;2024-03-25T01:16:44;26.60;;;6.53;;
26080;SDS011;13991;51.174;4.438;2024-03-25T01:19:09;16.83;;;6.30;;
26080;SDS011;13991;51.174;4.438;2024-03-25T01:21:35;13.00;;;6.13;;
26080;SDS011;13991;51.174;4.438;2024-03-25T01:24:00;18.50;;;6.87;;
26080;SDS011;13991;51.174;4.438;2024-03-25T01:26:26;15.83;;;7.17;;
26080;SDS011;13991;51.174;4.438;2024-03-25T01:28:53;24.07;;;6.77;;
26080;SDS011;13991;51.174;4.438;2024-03-25T01:31:19;20.93;;;7.07;;
26080;SDS011;13991;51.174;4.438;2024-03-25T01:33:45;18.30;;;6.10;;
26080;SDS011;13991;51.174;4.438;2024-03-25T01:36:11;17.37;;;6.63;;
26080;SDS011;13991;51.174;4.438;2024-03-25T01:38:42;17.27;;;6.37;;
26080;SDS011;13991;51.174;4.438;2024-03-25T01:41:09;19.00;;;6.40;;
26080;SDS011;13991;51.174;4.438;2024-03-25T01:43:40;28.37;;;6.93;;
26080;SDS011;13991;51.174;4.438;2024-03-25T01:46:05;20.23;;;6.80;;
26080;SDS011;13991;51.174;4.438;2024-03-25T01:48:32;18.40;;;6.40;;
26080;SDS011;13991;51.174;4.438;2024-03-25T01:50:58;18.13;;;7.60;;
26080;SDS011;13991;51.174;4.438;2024-03-25T01:53:26;15.90;;;6.40;;
26080;SDS011;13991;51.174;4.438;2024-03-25T01:55:54;18.97;;;6.57;;
26080;SDS011;13991;51.174;4.438;2024-03-25T01:58:21;22.00;;;6.70;;
26080;SDS011;13991;51.174;4.438;2024-03-25T02:00:48;22.20;;;6.30;;
26080;SDS011;13991;51.174;4.438;2024-03-25T02:03:15;22.33;;;6.83;;
26080;SDS011;13991;51.174;4.438;2024-03-25T02:05:41;15.77;;;6.93;;
26080;SDS011;13991;51.174;4.438;2024-03-25T02:08:07;15.70;;;6.73;;
26080;SDS011;13991;51.174;4.438;2024-03-25T02:10:35;23.33;;;6.50;;
26080;SDS011;13991;51.174;4.438;2024-03-25T02:13:02;15.03;;;6.40;;
26080;SDS011;13991;51.174;4.438;2024-03-25T02:15:28;23.97;;;6.33;;
26080;SDS011;13991;51.174;4.438;2024-03-25T02:17:54;18.07;;;6.57;;
26080;SDS011;13991;51.174;4.438;2024-03-25T02:20:20;17.60;;;5.67;;
26080;SDS011;13991;51.174;4.438;2024-03-25T02:22:45;18.33;;;5.40;;
26080;SDS011;13991;51.174;4.438;2024-03-25T02:25:11;18.27;;;6.43;;
26080;SDS011;13991;51.174;4.438;2024-03-25T02:27:41;18.93;;;6.83;;
26080;SDS011;13991;51.174;4.438;2024-03-25T02:30:07;12.10;;;5.20;;
26080;SDS011;13991;51.174;4.438;2024-03-25T02:32:38;18.33;;;6.10;;
26080;SDS011;13991;51.174;4.438;2024-03-25T02:35:08;23.23;;;7.43;;
26080;SDS011;13991;51.174;4.438;2024-03-25T02:37:37;17.20;;;6.07;;
26080;SDS011;13991;51.174;4.438;2024-03-25T02:40:04;21.97;;;6.10;;
26080;SDS011;13991;51.174;4.438;2024-03-25T02:42:34;13.23;;;5.33;;
26080;SDS011;13991;51.174;4.438;2024-03-25T02:45:00;18.20;;;5.93;;
26080;SDS011;13991;51.174;4.438;2024-03-25T02:47:26;12.10;;;5.43;;
26080;SDS011;13991;51.174;4.438;2024-03-25T02:49:51;13.33;;;5.23;;
26080;SDS011;13991;51.174;4.438;2024-03-25T02:52:18;17.73;;;5.57;;
26080;SDS011;13991;51.174;4.438;2024-03-25T02:54:44;22.90;;;5.87;;
26080;SDS011;13991;51.174;4.438;2024-03-25T02:57:10;24.27;;;5.93;;
26080;SDS011;13991;51.174;4.438;2024-03-25T02:59:36;13.60;;;5.73;;
26080;SDS011;13991;51.174;4.438;2024-03-25T03:02:02;13.23;;;6.13;;
26080;SDS011;13991;51.174;4.438;2024-03-25T03:04:27;11.77;;;5.40;;
26080;SDS011;13991;51.174;4.438;2024-03-25T03:06:53;25.97;;;5.57;;
26080;SDS011;13991;51.174;4.438;2024-03-25T03:09:19;17.07;;;5.63;;
26080;SDS011;13991;51.174;4.438;2024-03-25T03:11:44;22.17;;;6.33;;
26080;SDS011;13991;51.174;4.438;2024-03-25T03:14:10;15.90;;;6.97;;
26080;SDS011;13991;51.174;4.438;2024-03-25T03:16:36;20.77;;;6.00;;
26080;SDS011;13991;51.174;4.438;2024-03-25T03:19:01;14.80;;;5.70;;
26080;SDS011;13991;51.174;4.438;2024-03-25T03:21:27;16.47;;;5.33;;
26080;SDS011;13991;51.174;4.438;2024-03-25T03:23:53;19.53;;;7.00;;
26080;SDS011;13991;51.174;4.438;2024-03-25T03:26:18;14.50;;;5.80;;
26080;SDS011;13991;51.174;4.438;2024-03-25T03:28:44;18.43;;;6.10;;
26080;SDS011;13991;51.174;4.438;2024-03-25T03:31:10;14.93;;;5.60;;
26080;SDS011;13991;51.174;4.438;2024-03-25T03:33:35;21.97;;;7.00;;
26080;SDS011;13991;51.174;4.438;2024-03-25T03:36:01;20.33;;;6.23;;
26080;SDS011;13991;51.174;4.438;2024-03-25T03:38:27;24.10;;;6.10;;
26080;SDS011;13991;51.174;4.438;2024-03-25T03:40:59;18.67;;;6.50;;
26080;SDS011;13991;51.174;4.438;2024-03-25T03:43:27;26.23;;;5.83;;
26080;SDS011;13991;51.174;4.438;2024-03-25T03:45:52;15.93;;;6.77;;
26080;SDS011;13991;51.174;4.438;2024-03-25T03:48:18;12.43;;;5.47;;
26080;SDS011;13991;51.174;4.438;2024-03-25T03:50:44;19.13;;;4.80;;
26080;SDS011;13991;51.174;4.438;2024-03-25T03:53:10;19.10;;;6.00;;
26080;SDS011;13991;51.174;4.438;2024-03-25T03:55:36;9.37;;;4.67;;
26080;SDS011;13991;51.174;4.438;2024-03-25T03:58:01;10.53;;;5.20;;
26080;SDS011;13991;51.174;4.438;2024-03-25T04:00:27;22.93;;;5.60;;
26080;SDS011;13991;51.174;4.438;2024-03-25T04:02:53;16.33;;;5.47;;
26080;SDS011;13991;51.174;4.438;2024-03-25T04:05:19;19.17;;;5.57;;
26080;SDS011;13991;51.174;4.438;2024-03-25T04:07:45;14.23;;;5.10;;
26080;SDS011;13991;51.174;4.438;2024-03-25T04:10:10;20.50;;;6.37;;
26080;SDS011;13991;51.174;4.438;2024-03-25T04:12:36;14.27;;;5.97;;
26080;SDS011;13991;51.174;4.438;2024-03-25T04:15:04;21.33;;;5.20;;
26080;SDS011;13991;51.174;4.438;2024-03-25T04:17:30;17.67;;;5.90;;
26080;SDS011;13991;51.174;4.438;2024-03-25T04:19:58;27.90;;;5.53;;
26080;SDS011;13991;51.174;4.438;2024-03-25T04:22:25;15.07;;;6.50;;
26080;SDS011;13991;51.174;4.438;2024-03-25T04:24:51;22.87;;;5.33;;
26080;SDS011;13991;51.174;4.438;2024-03-25T04:27:16;16.17;;;5.70;;
26080;SDS011;13991;51.174;4.438;2024-03-25T04:29:45;21.53;;;5.53;;
26080;SDS011;13991;51.174;4.438;2024-03-25T04:32:11;24.20;;;6.03;;
26080;SDS011;13991;51.174;4.438;2024-03-25T04:34:37;14.77;;;5.77;;
26080;SDS011;13991;51.174;4.438;2024-03-25T04:37:03;18.67;;;5.97;;
26080;SDS011;13991;51.174;4.438;2024-03-25T04:39:29;18.17;;;5.17;;
26080;SDS011;13991;51.174;4.438;2024-03-25T04:41:55;25.23;;;6.47;;
26080;SDS011;13991;51.174;4.438;2024-03-25T04:44:21;14.87;;;5.87;;
26080;SDS011;13991;51.174;4.438;2024-03-25T04:46:47;24.80;;;6.50;;
26080;SDS011;13991;51.174;4.438;2024-03-25T04:49:13;20.53;;;5.87;;
26080;SDS011;13991;51.174;4.438;2024-03-25T04:51:38;25.03;;;7.60;;
26080;SDS011;13991;51.174;4.438;2024-03-25T04:54:04;23.07;;;6.80;;
26080;SDS011;13991;51.174;4.438;2024-03-25T04:56:30;25.07;;;7.03;;
26080;SDS011;13991;51.174;4.438;2024-03-25T04:58:56;29.83;;;7.13;;
26080;SDS011;13991;51.174;4.438;2024-03-25T05:01:26;21.30;;;6.30;;
26080;SDS011;13991;51.174;4.438;2024-03-25T05:03:52;33.80;;;7.33;;
26080;SDS011;13991;51.174;4.438;2024-03-25T05:06:18;28.27;;;7.43;;
26080;SDS011;13991;51.174;4.438;2024-03-25T05:08:44;26.43;;;8.13;;
26080;SDS011;13991;51.174;4.438;2024-03-25T05:11:09;23.57;;;6.97;;
26080;SDS011;13991;51.174;4.438;2024-03-25T05:13:35;25.63;;;7.03;;
26080;SDS011;13991;51.174;4.438;2024-03-25T05:16:01;29.43;;;8.20;;
26080;SDS011;13991;51.174;4.438;2024-03-25T05:18:26;25.50;;;8.30;;
26080;SDS011;13991;51.174;4.438;2024-03-25T05:20:52;20.63;;;7.90;;
26080;SDS011;13991;51.174;4.438;2024-03-25T05:23:17;28.00;;;8.70;;
26080;SDS011;13991;51.174;4.438;2024-03-25T05:25:43;29.20;;;8.93;;
26080;SDS011;13991;51.174;4.438;2024-03-25T05:28:09;39.90;;;8.63;;
26080;SDS011;13991;51.174;4.438;2024-03-25T05:30:34;30.33;;;8.73;;
26080;SDS011;13991;51.174;4.438;2024-03-25T05:33:00;27.43;;;7.80;;
26080;SDS011;13991;51.174;4.438;2024-03-25T05:35:26;37.30;;;9.57;;
26080;SDS011;13991;51.174;4.438;2024-03-25T05:37:52;28.20;;;8.80;;
26080;SDS011;13991;51.174;4.438;2024-03-25T05:40:18;36.90;;;9.07;;
26080;SDS011;13991;51.174;4.438;2024-03-25T05:42:47;32.93;;;9.27;;
26080;SDS011;13991;51.174;4.438;2024-03-25T05:45:12;31.43;;;8.60;;
26080;SDS011;13991;51.174;4.438;2024-03-25T05:47:38;29.80;;;9.67;;
26080;SDS011;13991;51.174;4.438;2024-03-25T05:50:04;41.20;;;10.57;;
26080;SDS011;13991;51.174;4.438;2024-03-25T05:52:30;31.60;;;9.70;;
26080;SDS011;13991;51.174;4.438;2024-03-25T05:54:57;32.30;;;9.20;;
26080;SDS011;13991;51.174;4.438;2024-03-25T05:57:23;27.30;;;9.90;;
26080;SDS011;13991;51.174;4.438;2024-03-25T06:02:32;53.87;;;11.07;;
26080;SDS011;13991;51.174;4.438;2024-03-25T06:04:58;36.20;;;10.07;;
26080;SDS011;13991;51.174;4.438;2024-03-25T06:07:34;30.20;;;10.60;;
26080;SDS011;13991;51.174;4.438;2024-03-25T06:09:59;49.27;;;11.03;;
26080;SDS011;13991;51.174;4.438;2024-03-25T06:12:25;40.20;;;10.63;;
26080;SDS011;13991;51.174;4.438;2024-03-25T06:14:51;41.40;;;11.47;;
26080;SDS011;13991;51.174;4.438;2024-03-25T06:17:16;66.70;;;14.37;;
26080;SDS011;13991;51.174;4.438;2024-03-25T06:19:42;45.87;;;12.17;;
26080;SDS011;13991;51.174;4.438;2024-03-25T06:22:08;34.83;;;10.83;;
26080;SDS011;13991;51.174;4.438;2024-03-25T06:24:34;37.13;;;11.00;;
26080;SDS011;13991;51.174;4.438;2024-03-25T06:27:01;34.27;;;12.30;;
26080;SDS011;13991;51.174;4.438;2024-03-25T06:29:31;36.97;;;12.03;;
26080;SDS011;13991;51.174;4.438;2024-03-25T06:31:57;50.57;;;12.20;;
26080;SDS011;13991;51.174;4.438;2024-03-25T06:34:41;46.33;;;14.43;;
26080;SDS011;13991;51.174;4.438;2024-03-25T06:37:08;39.13;;;12.73;;
26080;SDS011;13991;51.174;4.438;2024-03-25T06:39:33;40.80;;;12.77;;
26080;SDS011;13991;51.174;4.438;2024-03-25T06:41:59;46.03;;;14.13;;
26080;SDS011;13991;51.174;4.438;2024-03-25T06:44:25;55.73;;;14.80;;
26080;SDS011;13991;51.174;4.438;2024-03-25T06:46:51;48.83;;;15.07;;
26080;SDS011;13991;51.174;4.438;2024-03-25T06:49:18;54.27;;;17.40;;
26080;SDS011;13991;51.174;4.438;2024-03-25T06:51:44;55.70;;;16.30;;
26080;SDS011;13991;51.174;4.438;2024-03-25T06:54:10;73.33;;;16.83;;
26080;SDS011;13991;51.174;4.438;2024-03-25T06:56:36;60.57;;;16.17;;
26080;SDS011;13991;51.174;4.438;2024-03-25T06:59:02;65.57;;;15.07;;
26080;SDS011;13991;51.174;4.438;2024-03-25T07:01:35;45.50;;;15.87;;
26080;SDS011;13991;51.174;4.438;2024-03-25T07:04:01;56.00;;;16.43;;
26080;SDS011;13991;51.174;4.438;2024-03-25T07:06:28;55.50;;;16.37;;
26080;SDS011;13991;51.174;4.438;2024-03-25T07:11:29;62.87;;;18.00;;
26080;SDS011;13991;51.174;4.438;2024-03-25T07:13:54;58.83;;;15.67;;
26080;SDS011;13991;51.174;4.438;2024-03-25T07:16:20;61.57;;;17.87;;
26080;SDS011;13991;51.174;4.438;2024-03-25T07:18:46;89.40;;;20.73;;
26080;SDS011;13991;51.174;4.438;2024-03-25T07:21:11;74.70;;;20.73;;
26080;SDS011;13991;51.174;4.438;2024-03-25T07:23:37;66.87;;;21.43;;
26080;SDS011;13991;51.174;4.438;2024-03-25T07:26:02;90.33;;;20.20;;
26080;SDS011;13991;51.174;4.438;2024-03-25T07:28:28;64.47;;;21.23;;
26080;SDS011;13991;51.174;4.438;2024-03-25T07:30:54;79.53;;;21.07;;
26080;SDS011;13991;51.174;4.438;2024-03-25T07:33:19;63.00;;;19.77;;
26080;SDS011;13991;51.174;4.438;2024-03-25T07:35:45;77.83;;;19.77;;
26080;SDS011;13991;51.174;4.438;2024-03-25T07:38:11;78.33;;;20.77;;
26080;SDS011;13991;51.174;4.438;2024-03-25T07:40:37;74.30;;;19.70;;
26080;SDS011;13991;51.174;4.438;2024-03-25T07:43:02;65.97;;;19.80;;
26080;SDS011;13991;51.174;4.438;2024-03-25T07:45:29;71.07;;;19.83;;
26080;SDS011;13991;51.174;4.438;2024-03-25T07:47:54;57.00;;;18.40;;
26080;SDS011;13991;51.174;4.438;2024-03-25T07:50:20;63.57;;;19.60;;
26080;SDS011;13991;51.174;4.438;2024-03-25T07:52:46;66.77;;;19.83;;
26080;SDS011;13991;51.174;4.438;2024-03-25T07:55:11;58.37;;;18.27;;
26080;SDS011;13991;51.174;4.438;2024-03-25T07:57:38;62.53;;;18.93;;
26080;SDS011;13991;51.174;4.438;2024-03-25T08:00:04;58.67;;;17.17;;
26080;SDS011;13991;51.174;4.438;2024-03-25T08:02:30;53.70;;;16.33;;
26080;SDS011;13991;51.174;4.438;2024-03-25T08:04:56;71.67;;;16.33;;
26080;SDS011;13991;51.174;4.438;2024-03-25T08:07:23;52.65;;;16.52;;
26080;SDS011;13991;51.174;4.438;2024-03-25T08:09:49;59.23;;;16.23;;
26080;SDS011;13991;51.174;4.438;2024-03-25T08:12:15;61.67;;;16.37;;
26080;SDS011;13991;51.174;4.438;2024-03-25T08:14:40;54.07;;;16.47;;
26080;SDS011;13991;51.174;4.438;2024-03-25T08:17:08;54.03;;;16.07;;
26080;SDS011;13991;51.174;4.438;2024-03-25T08:19:34;55.73;;;16.17;;
26080;SDS011;13991;51.174;4.438;2024-03-25T08:21:59;52.23;;;16.60;;
26080;SDS011;13991;51.174;4.438;2024-03-25T08:24:25;53.90;;;16.93;;
26080;SDS011;13991;51.174;4.438;2024-03-25T08:26:51;52.27;;;16.13;;
26080;SDS011;13991;51.174;4.438;2024-03-25T08:29:16;61.80;;;15.47;;
26080;SDS011;13991;51.174;4.438;2024-03-25T08:31:43;56.23;;;15.03;;
26080;SDS011;13991;51.174;4.438;2024-03-25T08:34:09;47.97;;;14.67;;
26080;SDS011;13991;51.174;4.438;2024-03-25T08:36:35;52.40;;;15.63;;
26080;SDS011;13991;51.174;4.438;2024-03-25T08:39:00;34.77;;;13.43;;
26080;SDS011;13991;51.174;4.438;2024-03-25T08:41:26;51.10;;;13.87;;
26080;SDS011;13991;51.174;4.438;2024-03-25T08:43:51;50.90;;;13.27;;
26080;SDS011;13991;51.174;4.438;2024-03-25T08:46:17;49.10;;;14.10;;
26080;SDS011;13991;51.174;4.438;2024-03-25T08:48:43;56.40;;;14.87;;
26080;SDS011;13991;51.174;4.438;2024-03-25T08:51:08;44.77;;;13.57;;
26080;SDS011;13991;51.174;4.438;2024-03-25T08:53:34;41.90;;;12.70;;
26080;SDS011;13991;51.174;4.438;2024-03-25T08:55:59;49.77;;;12.97;;
26080;SDS011;13991;51.174;4.438;2024-03-25T08:58:25;47.77;;;13.17;;
26080;SDS011;13991;51.174;4.438;2024-03-25T09:00:51;48.07;;;12.33;;
26080;SDS011;13991;51.174;4.438;2024-03-25T09:03:16;52.03;;;12.67;;
26080;SDS011;13991;51.174;4.438;2024-03-25T09:05:42;49.97;;;11.37;;
26080;SDS011;13991;51.174;4.438;2024-03-25T09:08:08;56.77;;;12.67;;
26080;SDS011;13991;51.174;4.438;2024-03-25T09:10:36;38.43;;;11.37;;
26080;SDS011;13991;51.174;4.438;2024-03-25T09:13:21;46.37;;;11.47;;
26080;SDS011;13991;51.174;4.438;2024-03-25T09:15:48;30.07;;;10.80;;
26080;SDS011;13991;51.174;4.438;2024-03-25T09:18:14;47.20;;;12.70;;
26080;SDS011;13991;51.174;4.438;2024-03-25T09:20:39;40.40;;;10.43;;
26080;SDS011;13991;51.174;4.438;2024-03-25T09:23:05;35.40;;;10.07;;
26080;SDS011;13991;51.174;4.438;2024-03-25T09:25:32;36.40;;;10.10;;
26080;SDS011;13991;51.174;4.438;2024-03-25T09:27:58;40.00;;;10.27;;
26080;SDS011;13991;51.174;4.438;2024-03-25T09:30:27;28.97;;;8.87;;
26080;SDS011;13991;51.174;4.438;2024-03-25T09:32:53;31.97;;;8.43;;
26080;SDS011;13991;51.174;4.438;2024-03-25T09:35:19;32.00;;;10.37;;
26080;SDS011;13991;51.174;4.438;2024-03-25T09:37:45;30.33;;;8.67;;
26080;SDS011;13991;51.174;4.438;2024-03-25T09:40:11;28.67;;;8.63;;
26080;SDS011;13991;51.174;4.438;2024-03-25T09:42:49;31.27;;;8.40;;
26080;SDS011;13991;51.174;4.438;2024-03-25T09:45:20;31.47;;;8.13;;
26080;SDS011;13991;51.174;4.438;2024-03-25T09:47:50;29.60;;;8.50;;
26080;SDS011;13991;51.174;4.438;2024-03-25T09:50:17;26.30;;;6.50;;
26080;SDS011;13991;51.174;4.438;2024-03-25T09:52:46;24.37;;;5.50;;
26080;SDS011;13991;51.174;4.438;2024-03-25T09:55:12;20.67;;;4.90;;
26080;SDS011;13991;51.174;4.438;2024-03-25T09:57:38;25.83;;;5.50;;
26080;SDS011;13991;51.174;4.438;2024-03-25T10:00:06;18.30;;;5.17;;
26080;SDS011;13991;51.174;4.438;2024-03-25T10:02:37;15.47;;;4.03;;
26080;SDS011;13991;51.174;4.438;2024-03-25T10:05:04;22.20;;;4.23;;
26080;SDS011;13991;51.174;4.438;2024-03-25T10:07:30;19.37;;;4.40;;
26080;SDS011;13991;51.174;4.438;2024-03-25T10:09:56;21.50;;;5.17;;
26080;SDS011;13991;51.174;4.438;2024-03-25T10:12:23;20.10;;;4.23;;
26080;SDS011;13991;51.174;4.438;2024-03-25T10:14:49;20.47;;;4.60;;
26080;SDS011;13991;51.174;4.438;2024-03-25T10:17:15;15.50;;;4.13;;
26080;SDS011;13991;51.174;4.438;2024-03-25T10:19:40;22.17;;;3.93;;
26080;SDS011;13991;51.174;4.438;2024-03-25T10:22:07;13.60;;;3.30;;
26080;SDS011;13991;51.174;4.438;2024-03-25T10:24:40;19.03;;;3.57;;
26080;SDS011;13991;51.174;4.438;2024-03-25T10:27:09;17.53;;;3.70;;
26080;SDS011;13991;51.174;4.438;2024-03-25T10:29:36;17.37;;;3.57;;
26080;SDS011;13991;51.174;4.438;2024-03-25T10:32:02;18.07;;;3.60;;
26080;SDS011;13991;51.174;4.438;2024-03-25T10:34:29;21.03;;;3.23;;
26080;SDS011;13991;51.174;4.438;2024-03-25T10:36:58;16.00;;;3.27;;
26080;SDS011;13991;51.174;4.438;2024-03-25T10:39:30;17.97;;;3.47;;
26080;SDS011;13991;51.174;4.438;2024-03-25T10:41:57;18.30;;;3.50;;
26080;SDS011;13991;51.174;4.438;2024-03-25T10:44:25;20.43;;;3.03;;
26080;SDS011;13991;51.174;4.438;2024-03-25T10:46:57;18.37;;;3.50;;
26080;SDS011;13991;51.174;4.438;2024-03-25T10:49:42;13.50;;;2.87;;
26080;SDS011;13991;51.174;4.438;2024-03-25T10:52:15;13.57;;;3.07;;
26080;SDS011;13991;51.174;4.438;2024-03-25T10:54:43;17.50;;;3.37;;
26080;SDS011;13991;51.174;4.438;2024-03-25T10:57:12;13.97;;;2.77;;
26080;SDS011;13991;51.174;4.438;2024-03-25T10:59:38;15.33;;;2.93;;
26080;SDS011;13991;51.174;4.438;2024-03-25T11:02:06;14.93;;;3.50;;
26080;SDS011;13991;51.174;4.438;2024-03-25T11:04:32;9.33;;;2.43;;
26080;SDS011;13991;51.174;4.438;2024-03-25T11:09:38;14.10;;;2.93;;
26080;SDS011;13991;51.174;4.438;2024-03-25T11:12:04;12.30;;;2.70;;
26080;SDS011;13991;51.174;4.438;2024-03-25T11:14:31;9.83;;;2.67;;
26080;SDS011;13991;51.174;4.438;2024-03-25T11:17:00;15.73;;;3.67;;
26080;SDS011;13991;51.174;4.438;2024-03-25T11:19:27;11.73;;;2.87;;
26080;SDS011;13991;51.174;4.438;2024-03-25T11:21:54;12.10;;;2.73;;
26080;SDS011;13991;51.174;4.438;2024-03-25T11:24:31;12.60;;;2.60;;
26080;SDS011;13991;51.174;4.438;2024-03-25T11:26:57;11.53;;;2.43;;
26080;SDS011;13991;51.174;4.438;2024-03-25T11:29:25;20.67;;;4.07;;
26080;SDS011;13991;51.174;4.438;2024-03-25T11:31:51;11.93;;;2.57;;
26080;SDS011;13991;51.174;4.438;2024-03-25T11:34:18;17.83;;;3.10;;
26080;SDS011;13991;51.174;4.438;2024-03-25T11:36:44;9.17;;;2.77;;
26080;SDS011;13991;51.174;4.438;2024-03-25T11:39:11;12.27;;;3.10;;
26080;SDS011;13991;51.174;4.438;2024-03-25T11:41:40;12.50;;;2.13;;
26080;SDS011;13991;51.174;4.438;2024-03-25T11:44:10;12.60;;;2.50;;
26080;SDS011;13991;51.174;4.438;2024-03-25T11:46:37;7.53;;;2.37;;
26080;SDS011;13991;51.174;4.438;2024-03-25T11:49:05;7.80;;;1.60;;
26080;SDS011;13991;51.174;4.438;2024-03-25T11:51:35;6.23;;;1.73;;
26080;SDS011;13991;51.174;4.438;2024-03-25T11:54:04;4.30;;;1.53;;
26080;SDS011;13991;51.174;4.438;2024-03-25T11:56:30;8.87;;;1.80;;
26080;SDS011;13991;51.174;4.438;2024-03-25T11:58:57;6.63;;;2.27;;
26080;SDS011;13991;51.174;4.438;2024-03-25T12:01:25;11.50;;;2.07;;
26080;SDS011;13991;51.174;4.438;2024-03-25T12:03:51;8.03;;;2.00;;
26080;SDS011;13991;51.174;4.438;2024-03-25T12:06:16;7.37;;;1.90;;
26080;SDS011;13991;51.174;4.438;2024-03-25T12:08:42;14.43;;;2.00;;
26080;SDS011;13991;51.174;4.438;2024-03-25T12:11:31;12.40;;;2.73;;
26080;SDS011;13991;51.174;4.438;2024-03-25T12:13:57;6.17;;;1.27;;
26080;SDS011;13991;51.174;4.438;2024-03-25T12:16:24;13.13;;;1.83;;
26080;SDS011;13991;51.174;4.438;2024-03-25T12:18:50;11.27;;;1.80;;
26080;SDS011;13991;51.174;4.438;2024-03-25T12:21:17;12.00;;;1.60;;
26080;SDS011;13991;51.174;4.438;2024-03-25T12:23:43;11.47;;;1.97;;
26080;SDS011;13991;51.174;4.438;2024-03-25T12:26:08;19.10;;;2.03;;
26080;SDS011;13991;51.174;4.438;2024-03-25T12:28:35;8.63;;;1.30;;
26080;SDS011;13991;51.174;4.438;2024-03-25T12:31:02;14.13;;;2.07;;
26080;SDS011;13991;51.174;4.438;2024-03-25T12:33:40;18.00;;;2.07;;
26080;SDS011;13991;51.174;4.438;2024-03-25T12:36:09;10.07;;;2.37;;
26080;SDS011;13991;51.174;4.438;2024-03-25T12:38:36;9.40;;;1.80;;
26080;SDS011;13991;51.174;4.438;2024-03-25T12:43:31;7.93;;;1.70;;
26080;SDS011;13991;51.174;4.438;2024-03-25T12:45:58;8.30;;;1.40;;
26080;SDS011;13991;51.174;4.438;2024-03-25T12:48:24;8.50;;;1.43;;
26080;SDS011;13991;51.174;4.438;2024-03-25T12:50:50;6.83;;;1.10;;
26080;SDS011;13991;51.174;4.438;2024-03-25T12:53:17;19.13;;;2.47;;
26080;SDS011;13991;51.174;4.438;2024-03-25T12:55:43;8.20;;;1.40;;
26080;SDS011;13991;51.174;4.438;2024-03-25T12:58:10;11.60;;;1.57;;
26080;SDS011;13991;51.174;4.438;2024-03-25T13:00:36;15.60;;;2.03;;
26080;SDS011;13991;51.174;4.438;2024-03-25T13:03:03;13.33;;;2.07;;
26080;SDS011;13991;51.174;4.438;2024-03-25T13:05:31;11.23;;;1.40;;
26080;SDS011;13991;51.174;4.438;2024-03-25T13:07:57;8.80;;;2.10;;
26080;SDS011;13991;51.174;4.438;2024-03-25T13:10:23;9.10;;;1.70;;
26080;SDS011;13991;51.174;4.438;2024-03-25T13:12:48;9.43;;;1.53;;
26080;SDS011;13991;51.174;4.438;2024-03-25T13:15:14;13.03;;;2.00;;
26080;SDS011;13991;51.174;4.438;2024-03-25T13:17:40;10.87;;;2.20;;
26080;SDS011;13991;51.174;4.438;2024-03-25T13:20:06;13.53;;;2.53;;
26080;SDS011;13991;51.174;4.438;2024-03-25T13:22:32;10.97;;;2.87;;
26080;SDS011;13991;51.174;4.438;2024-03-25T13:24:58;11.10;;;1.63;;
26080;SDS011;13991;51.174;4.438;2024-03-25T13:27:25;11.00;;;2.00;;
26080;SDS011;13991;51.174;4.438;2024-03-25T13:29:51;11.03;;;1.80;;
26080;SDS011;13991;51.174;4.438;2024-03-25T13:32:18;10.60;;;2.00;;
26080;SDS011;13991;51.174;4.438;2024-03-25T13:34:44;12.93;;;1.93;;
26080;SDS011;13991;51.174;4.438;2024-03-25T13:37:10;5.83;;;1.20;;
26080;SDS011;13991;51.174;4.438;2024-03-25T13:39:36;11.43;;;2.07;;
26080;SDS011;13991;51.174;4.438;2024-03-25T13:42:01;8.53;;;1.60;;
26080;SDS011;13991;51.174;4.438;2024-03-25T13:44:27;10.20;;;1.37;;
26080;SDS011;13991;51.174;4.438;2024-03-25T13:46:53;12.07;;;1.67;;
26080;SDS011;13991;51.174;4.438;2024-03-25T13:49:19;7.70;;;1.03;;
26080;SDS011;13991;51.174;4.438;2024-03-25T13:51:45;9.53;;;1.30;;
26080;SDS011;13991;51.174;4.438;2024-03-25T13:54:11;14.27;;;1.80;;
26080;SDS011;13991;51.174;4.438;2024-03-25T13:56:37;4.43;;;1.60;;
26080;SDS011;13991;51.174;4.438;2024-03-25T13:59:02;5.50;;;1.17;;
26080;SDS011;13991;51.174;4.438;2024-03-25T14:01:28;5.03;;;1.17;;
26080;SDS011;13991;51.174;4.438;2024-03-25T14:03:54;9.23;;;1.90;;
26080;SDS011;13991;51.174;4.438;2024-03-25T14:06:19;3.97;;;1.00;;
26080;SDS011;13991;51.174;4.438;2024-03-25T14:08:45;4.17;;;1.07;;
26080;SDS011;13991;51.174;4.438;2024-03-25T14:11:11;10.47;;;1.03;;
26080;SDS011;13991;51.174;4.438;2024-03-25T14:13:37;7.20;;;0.97;;
26080;SDS011;13991;51.174;4.438;2024-03-25T14:16:03;6.83;;;1.17;;
26080;SDS011;13991;51.174;4.438;2024-03-25T14:18:29;8.30;;;1.57;;
26080;SDS011;13991;51.174;4.438;2024-03-25T14:20:55;6.10;;;1.00;;
26080;SDS011;13991;51.174;4.438;2024-03-25T14:23:22;7.97;;;1.57;;
26080;SDS011;13991;51.174;4.438;2024-03-25T14:25:47;9.00;;;1.33;;
26080;SDS011;13991;51.174;4.438;2024-03-25T14:28:13;4.87;;;1.33;;
26080;SDS011;13991;51.174;4.438;2024-03-25T14:30:39;5.87;;;1.00;;
26080;SDS011;13991;51.174;4.438;2024-03-25T14:33:04;11.53;;;1.50;;
26080;SDS011;13991;51.174;4.438;2024-03-25T14:35:30;5.70;;;1.10;;
26080;SDS011;13991;51.174;4.438;2024-03-25T14:37:56;10.60;;;1.40;;
26080;SDS011;13991;51.174;4.438;2024-03-25T14:40:21;12.40;;;1.77;;